createdAt,value
2024-01-29T00:00:35.989Z,34.43
2024-01-29T00:01:35.975Z,34.43
2024-01-29T00:02:35.936Z,34.45
2024-01-29T00:03:36.065Z,34.41
2024-01-29T00:04:36.265Z,34.41
2024-01-29T00:05:35.974Z,34.38
2024-01-29T00:06:36.176Z,34.38
2024-01-29T00:07:35.996Z,34.38
2024-01-29T00:08:36.018Z,34.36
2024-01-29T00:09:36.081Z,34.34
2024-01-29T00:10:36.165Z,34.33
2024-01-29T00:11:36.258Z,34.33
2024-01-29T00:12:36.195Z,34.32
2024-01-29T00:13:36.158Z,34.30
2024-01-29T00:14:36.186Z,34.30
2024-01-29T00:15:36.289Z,34.28
2024-01-29T00:16:36.228Z,34.30
2024-01-29T00:17:36.333Z,34.25
2024-01-29T00:18:36.369Z,34.25
2024-01-29T00:19:36.452Z,34.29
2024-01-29T00:20:36.367Z,34.28
2024-01-29T00:21:36.393Z,34.30
2024-01-29T00:22:36.396Z,34.30
2024-01-29T00:23:36.418Z,34.32
2024-01-29T00:24:36.518Z,34.29
2024-01-29T00:25:36.496Z,34.34
2024-01-29T00:26:36.522Z,34.33
2024-01-29T00:27:36.558Z,34.25
2024-01-29T00:28:36.567Z,34.25
2024-01-29T00:29:36.582Z,34.28
2024-01-29T00:30:36.660Z,34.27
2024-01-29T00:31:36.635Z,34.29
2024-01-29T00:32:36.708Z,34.21
2024-01-29T00:33:36.844Z,34.23
2024-01-29T00:34:36.757Z,34.29
2024-01-29T00:35:36.755Z,34.19
2024-01-29T00:36:36.815Z,34.26
2024-01-29T00:37:36.811Z,34.23
2024-01-29T00:38:36.836Z,34.21
2024-01-29T00:39:36.870Z,34.21
2024-01-29T00:40:36.887Z,34.24
2024-01-29T00:41:36.925Z,34.19
2024-01-29T00:42:37.008Z,34.19
2024-01-29T00:43:36.947Z,34.18
2024-01-29T00:44:36.991Z,34.24
2024-01-29T00:45:37.042Z,34.21
2024-01-29T00:46:37.048Z,34.20
2024-01-29T00:47:37.120Z,34.25
2024-01-29T00:48:37.208Z,34.21
2024-01-29T00:49:37.506Z,34.21
2024-01-29T00:50:37.160Z,34.21
2024-01-29T00:51:37.204Z,34.20
2024-01-29T00:52:37.205Z,34.24
2024-01-29T00:53:37.252Z,34.20
2024-01-29T00:54:37.304Z,34.24
2024-01-29T00:55:37.277Z,34.20
2024-01-29T00:56:37.314Z,34.28
2024-01-29T00:57:37.347Z,34.25
2024-01-29T00:58:37.360Z,34.24
2024-01-29T00:59:37.406Z,34.25
2024-01-29T01:00:37.483Z,34.22
2024-01-29T01:01:37.560Z,34.21
2024-01-29T01:02:37.542Z,34.21
2024-01-29T01:03:37.553Z,34.21
2024-01-29T01:04:37.621Z,34.20
2024-01-29T01:05:37.667Z,34.23
2024-01-29T01:06:37.726Z,34.21
2024-01-29T01:07:37.638Z,34.20
2024-01-29T01:08:37.639Z,34.17
2024-01-29T01:09:37.728Z,34.22
2024-01-29T01:10:37.716Z,34.16
2024-01-29T01:11:37.710Z,34.21
2024-01-29T01:12:37.778Z,34.17
2024-01-29T01:13:37.718Z,34.20
2024-01-29T01:14:37.763Z,34.21
2024-01-29T01:15:37.803Z,34.22
2024-01-29T01:16:37.743Z,34.18
2024-01-29T01:17:37.820Z,34.20
2024-01-29T01:18:37.834Z,34.13
2024-01-29T01:19:37.844Z,34.17
2024-01-29T01:20:37.770Z,34.18
2024-01-29T01:21:37.805Z,34.12
2024-01-29T01:22:37.808Z,34.15
2024-01-29T01:23:37.792Z,34.11
2024-01-29T01:24:37.826Z,34.10
2024-01-29T01:25:37.800Z,34.14
2024-01-29T01:26:37.806Z,34.13
2024-01-29T01:27:37.845Z,34.17
2024-01-29T01:28:37.826Z,34.12
2024-01-29T01:29:37.843Z,34.11
2024-01-29T01:30:37.926Z,34.12
2024-01-29T01:31:37.854Z,34.14
2024-01-29T01:32:37.918Z,34.16
2024-01-29T01:33:37.947Z,34.14
2024-01-29T01:34:38.047Z,34.13
2024-01-29T01:35:37.882Z,34.10
2024-01-29T01:36:37.897Z,34.10
2024-01-29T01:37:37.887Z,34.12
2024-01-29T01:38:37.913Z,34.15
2024-01-29T01:39:37.932Z,34.06
2024-01-29T01:40:37.921Z,34.11
2024-01-29T01:41:37.974Z,34.09
2024-01-29T01:42:38.020Z,34.09
2024-01-29T01:43:38.048Z,34.07
2024-01-29T01:44:38.081Z,34.09
2024-01-29T01:45:38.206Z,34.08
2024-01-29T01:46:38.233Z,34.04
2024-01-29T01:47:38.165Z,34.04
2024-01-29T01:48:38.265Z,34.01
2024-01-29T01:49:38.294Z,34.00
2024-01-29T01:50:38.226Z,34.02
2024-01-29T01:51:38.289Z,34.00
2024-01-29T01:52:38.285Z,33.99
2024-01-29T01:53:38.338Z,34.02
2024-01-29T01:54:38.393Z,33.99
2024-01-29T01:55:38.373Z,34.00
2024-01-29T01:56:38.399Z,34.01
2024-01-29T01:57:38.480Z,33.96
2024-01-29T01:58:38.472Z,33.96
2024-01-29T01:59:38.500Z,33.92
2024-01-29T02:00:38.602Z,33.91
2024-01-29T02:01:38.643Z,33.90
2024-01-29T02:02:38.603Z,33.91
2024-01-29T02:03:38.660Z,33.91
2024-01-29T02:04:38.774Z,33.94
2024-01-29T02:05:38.718Z,33.91
2024-01-29T02:06:38.754Z,33.88
2024-01-29T02:07:38.804Z,33.92
2024-01-29T02:08:38.781Z,33.86
2024-01-29T02:09:38.838Z,33.86
2024-01-29T02:10:38.833Z,33.88
2024-01-29T02:11:38.864Z,33.88
2024-01-29T02:12:38.947Z,33.86
2024-01-29T02:13:38.911Z,33.86
2024-01-29T02:14:38.962Z,33.84
2024-01-29T02:15:38.986Z,33.85
2024-01-29T02:16:39.030Z,33.83
2024-01-29T02:17:39.079Z,33.85
2024-01-29T02:18:39.148Z,33.81
2024-01-29T02:19:39.262Z,33.83
2024-01-29T02:20:39.128Z,33.85
2024-01-29T02:21:39.140Z,33.81
2024-01-29T02:22:39.177Z,33.80
2024-01-29T02:23:39.169Z,33.80
2024-01-29T02:24:39.228Z,33.80
2024-01-29T02:25:39.176Z,33.83
2024-01-29T02:26:39.189Z,33.77
2024-01-29T02:27:39.208Z,33.72
2024-01-29T02:28:39.212Z,33.75
2024-01-29T02:29:39.243Z,33.72
2024-01-29T02:30:39.274Z,33.66
2024-01-29T02:31:39.216Z,33.66
2024-01-29T02:32:39.271Z,33.68
2024-01-29T02:33:39.974Z,33.61
2024-01-29T02:34:39.310Z,33.61
2024-01-29T02:35:39.234Z,33.62
2024-01-29T02:36:39.262Z,33.57
2024-01-29T02:37:39.238Z,33.61
2024-01-29T02:38:39.242Z,33.57
2024-01-29T02:39:39.291Z,33.56
2024-01-29T02:40:39.255Z,33.57
2024-01-29T02:41:39.248Z,33.57
2024-01-29T02:42:39.261Z,33.55
2024-01-29T02:43:39.232Z,33.55
2024-01-29T02:44:39.243Z,33.51
2024-01-29T02:45:39.309Z,33.51
2024-01-29T02:46:39.240Z,33.47
2024-01-29T02:47:39.270Z,33.41
2024-01-29T02:48:39.304Z,33.42
2024-01-29T02:49:39.360Z,33.41
2024-01-29T02:50:39.254Z,33.33
2024-01-29T02:51:39.298Z,33.38
2024-01-29T02:52:39.256Z,33.36
2024-01-29T02:53:39.258Z,33.38
2024-01-29T02:54:39.288Z,33.37
2024-01-29T02:55:39.257Z,33.35
2024-01-29T02:56:39.267Z,33.33
2024-01-29T02:57:39.317Z,33.38
2024-01-29T02:58:39.271Z,33.37
2024-01-29T02:59:39.287Z,33.37
2024-01-29T03:00:39.362Z,33.38
2024-01-29T03:01:39.467Z,33.31
2024-01-29T03:02:39.371Z,33.33
2024-01-29T03:03:39.490Z,33.31
2024-01-29T03:04:39.527Z,33.32
2024-01-29T03:05:39.437Z,33.32
2024-01-29T03:06:39.467Z,33.26
2024-01-29T03:07:39.458Z,33.28
2024-01-29T03:08:39.479Z,33.26
2024-01-29T03:09:39.555Z,33.27
2024-01-29T03:10:39.520Z,33.31
2024-01-29T03:11:39.545Z,33.22
2024-01-29T03:12:39.581Z,33.23
2024-01-29T03:13:39.592Z,33.22
2024-01-29T03:14:39.618Z,33.21
2024-01-29T03:15:40.380Z,33.18
2024-01-29T03:16:39.642Z,33.20
2024-01-29T03:17:39.686Z,33.21
2024-01-29T03:18:39.809Z,33.20
2024-01-29T03:19:39.928Z,33.20
2024-01-29T03:20:39.707Z,33.19
2024-01-29T03:21:39.719Z,33.21
2024-01-29T03:22:39.730Z,33.20
2024-01-29T03:23:39.746Z,33.20
2024-01-29T03:24:39.800Z,33.16
2024-01-29T03:25:39.782Z,33.12
2024-01-29T03:26:39.802Z,33.13
2024-01-29T03:27:39.879Z,33.12
2024-01-29T03:28:39.849Z,33.09
2024-01-29T03:29:39.852Z,33.13
2024-01-29T03:30:39.921Z,33.11
2024-01-29T03:31:39.888Z,33.09
2024-01-29T03:32:39.952Z,33.09
2024-01-29T03:33:40.065Z,33.12
2024-01-29T03:34:40.037Z,33.08
2024-01-29T03:35:39.943Z,33.09
2024-01-29T03:36:39.971Z,33.04
2024-01-29T03:37:39.978Z,33.06
2024-01-29T03:38:39.993Z,33.01
2024-01-29T03:39:40.031Z,33.06
2024-01-29T03:40:40.014Z,33.02
2024-01-29T03:41:40.017Z,33.01
2024-01-29T03:42:40.069Z,32.93
2024-01-29T03:43:40.050Z,32.92
2024-01-29T03:44:40.071Z,32.94
2024-01-29T03:45:40.136Z,32.98
2024-01-29T03:46:40.080Z,32.91
2024-01-29T03:47:40.093Z,32.95
2024-01-29T03:48:40.252Z,32.99
2024-01-29T03:49:40.204Z,32.95
2024-01-29T03:50:40.127Z,32.99
2024-01-29T03:51:40.165Z,32.95
2024-01-29T03:52:40.128Z,32.97
2024-01-29T03:53:40.120Z,32.97
2024-01-29T03:54:40.157Z,32.97
2024-01-29T03:55:40.145Z,32.95
2024-01-29T03:56:40.133Z,32.92
2024-01-29T03:57:40.188Z,32.95
2024-01-29T03:58:40.150Z,32.93
2024-01-29T03:59:40.151Z,32.93
2024-01-29T04:00:40.321Z,32.91
2024-01-29T04:01:40.340Z,32.91
2024-01-29T04:02:40.160Z,32.87
2024-01-29T04:03:40.251Z,32.91
2024-01-29T04:04:40.340Z,32.83
2024-01-29T04:05:40.207Z,32.83
2024-01-29T04:06:40.269Z,32.83
2024-01-29T04:07:40.276Z,32.84
2024-01-29T04:08:40.178Z,32.86
2024-01-29T04:09:40.230Z,32.86
2024-01-29T04:10:40.195Z,32.86
2024-01-29T04:11:40.211Z,32.80
2024-01-29T04:12:40.232Z,32.73
2024-01-29T04:13:40.200Z,32.74
2024-01-29T04:14:40.204Z,32.77
2024-01-29T04:15:40.255Z,32.77
2024-01-29T04:16:40.185Z,32.80
2024-01-29T04:17:40.331Z,32.79
2024-01-29T04:18:40.306Z,32.81
2024-01-29T04:19:40.231Z,32.80
2024-01-29T04:20:40.275Z,32.77
2024-01-29T04:21:40.242Z,32.76
2024-01-29T04:22:40.222Z,32.76
2024-01-29T04:23:40.290Z,32.79
2024-01-29T04:24:40.255Z,32.81
2024-01-29T04:25:40.240Z,32.73
2024-01-29T04:26:40.244Z,32.74
2024-01-29T04:27:40.278Z,32.76
2024-01-29T04:28:40.251Z,32.66
2024-01-29T04:29:40.276Z,32.65
2024-01-29T04:30:40.308Z,32.68
2024-01-29T04:31:40.266Z,32.65
2024-01-29T04:32:40.399Z,32.63
2024-01-29T04:33:40.314Z,32.63
2024-01-29T04:34:40.319Z,32.64
2024-01-29T04:35:40.282Z,32.63
2024-01-29T04:36:40.321Z,32.66
2024-01-29T04:37:40.294Z,32.64
2024-01-29T04:38:40.325Z,32.64
2024-01-29T04:39:40.344Z,32.70
2024-01-29T04:40:40.363Z,32.70
2024-01-29T04:41:40.354Z,32.69
2024-01-29T04:42:40.436Z,32.66
2024-01-29T04:43:40.343Z,32.66
2024-01-29T04:44:40.366Z,32.69
2024-01-29T04:45:40.385Z,32.65
2024-01-29T04:46:40.366Z,32.68
2024-01-29T04:47:40.471Z,32.63
2024-01-29T04:48:40.378Z,32.63
2024-01-29T04:49:40.463Z,32.66
2024-01-29T04:50:47.754Z,32.67
2024-01-29T04:51:47.884Z,32.64
2024-01-29T04:52:47.773Z,32.62
2024-01-29T04:53:47.788Z,32.61
2024-01-29T04:54:47.866Z,32.58
2024-01-29T04:55:47.818Z,32.57
2024-01-29T04:56:47.827Z,32.58
2024-01-29T04:57:47.849Z,32.58
2024-01-29T04:58:47.908Z,32.53
2024-01-29T04:59:47.863Z,32.58
2024-01-29T05:00:47.977Z,32.51
2024-01-29T05:01:48.024Z,32.52
2024-01-29T05:02:47.949Z,32.52
2024-01-29T05:03:50.602Z,32.52
2024-01-29T05:04:48.095Z,32.52
2024-01-29T05:05:48.044Z,32.47
2024-01-29T05:06:48.050Z,32.42
2024-01-29T05:07:48.041Z,32.42
2024-01-29T05:08:48.052Z,32.41
2024-01-29T05:09:48.381Z,32.41
2024-01-29T05:10:48.161Z,32.38
2024-01-29T05:11:48.091Z,32.37
2024-01-29T05:12:48.112Z,32.37
2024-01-29T05:13:48.123Z,32.37
2024-01-29T05:14:48.133Z,32.36
2024-01-29T05:15:48.218Z,32.36
2024-01-29T05:16:48.144Z,32.37
2024-01-29T05:17:48.222Z,32.34
2024-01-29T05:18:48.186Z,32.34
2024-01-29T05:19:48.206Z,32.37
2024-01-29T05:20:48.190Z,32.33
2024-01-29T05:21:49.031Z,32.32
2024-01-29T05:22:48.213Z,32.32
2024-01-29T05:23:48.227Z,32.24
2024-01-29T05:24:48.234Z,32.36
2024-01-29T05:25:48.249Z,32.26
2024-01-29T05:26:48.250Z,32.31
2024-01-29T05:27:48.368Z,32.31
2024-01-29T05:28:48.266Z,32.30
2024-01-29T05:29:48.274Z,32.24
2024-01-29T05:30:48.311Z,32.24
2024-01-29T05:31:48.323Z,32.30
2024-01-29T05:32:48.369Z,32.29
2024-01-29T05:33:48.463Z,32.29
2024-01-29T05:34:48.483Z,32.24
2024-01-29T05:35:48.541Z,32.19
2024-01-29T05:36:48.456Z,32.23
2024-01-29T05:37:48.390Z,32.19
2024-01-29T05:38:48.404Z,32.26
2024-01-29T05:39:48.515Z,32.26
2024-01-29T05:40:48.429Z,32.20
2024-01-29T05:41:48.441Z,32.24
2024-01-29T05:42:48.489Z,32.23
2024-01-29T05:43:48.469Z,32.19
2024-01-29T05:44:48.486Z,32.16
2024-01-29T05:45:48.534Z,32.23
2024-01-29T05:46:48.482Z,32.21
2024-01-29T05:47:48.584Z,32.21
2024-01-29T05:48:48.733Z,32.15
2024-01-29T05:49:48.659Z,32.19
2024-01-29T05:50:48.546Z,32.15
2024-01-29T05:51:48.629Z,32.17
2024-01-29T05:52:49.369Z,32.15
2024-01-29T05:53:48.680Z,32.11
2024-01-29T05:54:48.728Z,32.14
2024-01-29T05:55:48.627Z,32.16
2024-01-29T05:56:51.026Z,32.14
2024-01-29T05:57:48.645Z,32.16
2024-01-29T05:58:48.656Z,32.12
2024-01-29T05:59:48.666Z,32.14
2024-01-29T06:00:48.815Z,32.15
2024-01-29T06:01:49.026Z,32.17
2024-01-29T06:02:48.813Z,32.08
2024-01-29T06:03:48.740Z,32.16
2024-01-29T06:04:49.419Z,32.16
2024-01-29T06:05:48.843Z,32.12
2024-01-29T06:06:48.999Z,32.14
2024-01-29T06:07:48.821Z,32.11
2024-01-29T06:08:48.792Z,32.14
2024-01-29T06:09:48.849Z,32.09
2024-01-29T06:10:50.712Z,32.13
2024-01-29T06:11:48.849Z,32.15
2024-01-29T06:12:48.908Z,32.14
2024-01-29T06:13:48.942Z,32.16
2024-01-29T06:14:48.951Z,32.16
2024-01-29T06:15:48.982Z,32.11
2024-01-29T06:16:48.924Z,32.10
2024-01-29T06:17:48.991Z,32.14
2024-01-29T06:18:49.099Z,32.17
2024-01-29T06:20:03.215Z,32.57
2024-01-29T06:20:50.156Z,32.32
2024-01-29T06:21:49.108Z,33.09
2024-01-29T06:22:48.983Z,33.37
2024-01-29T06:23:48.998Z,33.16
2024-01-29T06:24:49.045Z,33.27
2024-01-29T06:25:49.055Z,34.21
2024-01-29T06:26:49.718Z,34.13
2024-01-29T06:27:49.164Z,34.67
2024-01-29T06:28:49.078Z,34.93
2024-01-29T06:29:49.104Z,35.11
2024-01-29T06:30:49.163Z,35.44
2024-01-29T06:31:49.206Z,35.71
2024-01-29T06:32:49.327Z,36.00
2024-01-29T06:33:49.383Z,36.29
2024-01-29T06:34:49.645Z,36.14
2024-01-29T06:35:49.479Z,36.78
2024-01-29T06:36:49.562Z,37.22
2024-01-29T06:37:50.301Z,37.78
2024-01-29T06:38:49.630Z,38.21
2024-01-29T06:39:49.742Z,38.39
2024-01-29T06:40:49.720Z,38.69
2024-01-29T06:41:49.770Z,39.00
2024-01-29T06:42:49.861Z,39.11
2024-01-29T06:43:49.818Z,39.00
2024-01-29T06:44:49.857Z,38.76
2024-01-29T06:45:50.424Z,39.06
2024-01-29T06:46:49.943Z,39.27
2024-01-29T06:47:49.962Z,39.54
2024-01-29T06:48:50.050Z,39.59
2024-01-29T06:49:50.920Z,39.74
2024-01-29T06:50:50.882Z,39.70
2024-01-29T06:51:51.911Z,40.06
2024-01-29T06:52:50.381Z,40.20
2024-01-29T06:53:50.101Z,40.46
2024-01-29T06:54:50.118Z,40.54
2024-01-29T06:55:50.129Z,40.48
2024-01-29T06:56:50.134Z,40.44
2024-01-29T06:57:50.267Z,40.87
2024-01-29T06:58:50.112Z,40.95
2024-01-29T06:59:50.851Z,40.88
2024-01-29T07:00:50.259Z,41.19
2024-01-29T07:01:50.282Z,41.26
2024-01-29T07:02:50.176Z,41.27
2024-01-29T07:03:50.404Z,41.15
2024-01-29T07:04:50.955Z,41.31
2024-01-29T07:05:50.340Z,41.35
2024-01-29T07:06:50.354Z,41.95
2024-01-29T07:07:50.389Z,41.95
2024-01-29T07:08:50.310Z,41.85
2024-01-29T07:09:50.313Z,42.45
2024-01-29T07:10:50.321Z,42.68
2024-01-29T07:11:51.013Z,42.40
2024-01-29T07:12:50.443Z,42.23
2024-01-29T07:13:50.406Z,42.70
2024-01-29T07:14:50.337Z,42.52
2024-01-29T07:15:50.468Z,43.12
2024-01-29T07:16:50.360Z,43.16
2024-01-29T07:17:50.426Z,43.20
2024-01-29T07:18:50.476Z,43.26
2024-01-29T07:19:50.438Z,43.59
2024-01-29T07:20:50.490Z,43.60
2024-01-29T07:21:50.507Z,44.03
2024-01-29T07:22:50.439Z,44.26
2024-01-29T07:23:50.433Z,44.31
2024-01-29T07:24:51.448Z,44.14
2024-01-29T07:25:50.520Z,44.03
2024-01-29T07:26:50.452Z,44.22
2024-01-29T07:27:50.506Z,44.02
2024-01-29T07:28:50.510Z,44.15
2024-01-29T07:29:50.558Z,44.40
2024-01-29T07:30:50.634Z,44.51
2024-01-29T07:31:50.777Z,44.79
2024-01-29T07:32:50.775Z,45.06
2024-01-29T07:33:50.798Z,44.98
2024-01-29T07:34:53.112Z,45.26
2024-01-29T07:35:51.009Z,45.32
2024-01-29T07:36:51.137Z,45.49
2024-01-29T07:37:51.058Z,45.62
2024-01-29T07:38:51.901Z,45.78
2024-01-29T07:39:51.175Z,45.68
2024-01-29T07:40:51.192Z,46.08
2024-01-29T07:41:51.218Z,46.35
2024-01-29T07:42:51.548Z,46.37
2024-01-29T07:43:51.298Z,46.69
2024-01-29T07:44:51.415Z,46.68
2024-01-29T07:45:51.431Z,46.95
2024-01-29T07:46:52.399Z,46.97
2024-01-29T07:47:51.542Z,46.90
2024-01-29T07:48:51.595Z,47.20
2024-01-29T07:49:51.743Z,47.03
2024-01-29T07:50:51.585Z,47.25
2024-01-29T07:51:51.684Z,47.28
2024-01-29T07:52:51.654Z,47.50
2024-01-29T07:53:52.413Z,47.51
2024-01-29T07:54:51.746Z,47.65
2024-01-29T07:55:51.772Z,47.89
2024-01-29T07:56:51.839Z,48.12
2024-01-29T07:57:51.977Z,48.20
2024-01-29T07:58:51.923Z,48.26
2024-01-29T07:59:51.949Z,48.27
2024-01-29T08:00:52.262Z,48.46
2024-01-29T08:01:52.126Z,48.50
2024-01-29T08:02:52.184Z,48.77
2024-01-29T08:03:52.193Z,48.81
2024-01-29T08:04:52.369Z,48.96
2024-01-29T08:05:52.279Z,49.13
2024-01-29T08:06:52.343Z,49.08
2024-01-29T08:07:52.393Z,49.24
2024-01-29T08:08:52.444Z,49.17
2024-01-29T08:09:52.549Z,49.39
2024-01-29T08:10:52.564Z,49.65
2024-01-29T08:11:52.606Z,49.56
2024-01-29T08:12:52.716Z,49.53
2024-01-29T08:13:52.816Z,49.37
2024-01-29T08:14:52.748Z,48.86
2024-01-29T08:15:52.835Z,48.78
2024-01-29T08:16:52.945Z,48.67
2024-01-29T08:17:52.980Z,48.61
2024-01-29T08:18:53.096Z,48.57
2024-01-29T08:19:53.060Z,48.57
2024-01-29T08:20:53.115Z,48.52
2024-01-29T08:21:53.038Z,48.36
2024-01-29T08:22:53.155Z,48.41
2024-01-29T08:23:53.094Z,48.33
2024-01-29T08:24:53.123Z,48.34
2024-01-29T08:25:53.137Z,48.27
2024-01-29T08:26:53.202Z,48.19
2024-01-29T08:27:53.954Z,48.20
2024-01-29T08:28:53.265Z,48.19
2024-01-29T08:29:53.341Z,48.11
2024-01-29T08:30:53.471Z,48.08
2024-01-29T08:31:53.414Z,47.99
2024-01-29T08:32:53.507Z,48.01
2024-01-29T08:33:53.656Z,47.93
2024-01-29T08:34:53.754Z,47.86
2024-01-29T08:35:53.923Z,47.81
2024-01-29T08:36:53.744Z,47.75
2024-01-29T08:37:53.776Z,47.76
2024-01-29T08:38:53.862Z,47.71
2024-01-29T08:39:53.918Z,47.57
2024-01-29T08:40:53.950Z,47.53
2024-01-29T08:41:54.060Z,47.47
2024-01-29T08:42:54.135Z,47.40
2024-01-29T08:43:54.168Z,47.40
2024-01-29T08:44:54.325Z,47.36
2024-01-29T08:45:54.337Z,47.29
2024-01-29T08:46:54.375Z,47.25
2024-01-29T08:47:54.495Z,47.12
2024-01-29T08:48:54.571Z,47.06
2024-01-29T08:49:54.597Z,47.09
2024-01-29T08:50:54.663Z,46.94
2024-01-29T08:51:54.794Z,46.90
2024-01-29T08:52:54.819Z,46.82
2024-01-29T08:53:54.849Z,46.83
2024-01-29T08:54:54.904Z,46.67
2024-01-29T08:55:55.081Z,46.62
2024-01-29T08:56:55.002Z,46.48
2024-01-29T08:57:55.022Z,46.47
2024-01-29T08:58:55.022Z,46.31
2024-01-29T08:59:55.028Z,46.24
2024-01-29T09:00:55.215Z,46.14
2024-01-29T09:01:55.180Z,46.12
2024-01-29T09:02:55.132Z,45.95
2024-01-29T09:03:55.204Z,45.76
2024-01-29T09:04:55.326Z,45.65
2024-01-29T09:05:55.230Z,45.61
2024-01-29T09:06:55.218Z,45.48
2024-01-29T09:07:56.245Z,45.42
2024-01-29T09:08:55.233Z,45.37
2024-01-29T09:09:55.254Z,45.27
2024-01-29T09:10:55.232Z,45.28
2024-01-29T09:11:55.238Z,45.18
2024-01-29T09:12:55.274Z,45.10
2024-01-29T09:13:55.257Z,45.12
2024-01-29T09:14:55.258Z,44.86
2024-01-29T09:15:55.257Z,44.77
2024-01-29T09:16:55.894Z,44.89
2024-01-29T09:17:55.326Z,44.84
2024-01-29T09:18:55.969Z,44.84
2024-01-29T09:19:55.966Z,44.89
2024-01-29T09:20:55.282Z,44.81
2024-01-29T09:21:55.344Z,44.85
2024-01-29T09:22:55.327Z,44.81
2024-01-29T09:23:55.286Z,44.74
2024-01-29T09:24:55.329Z,44.57
2024-01-29T09:25:55.872Z,44.43
2024-01-29T09:26:55.293Z,44.34
2024-01-29T09:27:55.338Z,44.19
2024-01-29T09:28:55.288Z,44.13
2024-01-29T09:29:55.287Z,44.12
2024-01-29T09:30:55.325Z,44.04
2024-01-29T09:31:55.277Z,43.93
2024-01-29T09:33:03.335Z,43.85
2024-01-29T09:33:56.545Z,43.73
2024-01-29T09:34:55.463Z,43.68
2024-01-29T09:35:55.283Z,43.61
2024-01-29T09:36:55.335Z,43.52
2024-01-29T09:37:55.345Z,43.48
2024-01-29T09:38:55.264Z,43.43
2024-01-29T09:39:55.298Z,43.37
2024-01-29T09:40:55.273Z,43.32
2024-01-29T09:41:55.285Z,43.21
2024-01-29T09:42:55.910Z,43.22
2024-01-29T09:43:55.274Z,43.12
2024-01-29T09:44:55.262Z,43.03
2024-01-29T09:45:55.271Z,42.94
2024-01-29T09:46:55.245Z,42.90
2024-01-29T09:47:56.080Z,42.82
2024-01-29T09:48:55.357Z,42.77
2024-01-29T09:49:55.979Z,42.66
2024-01-29T09:50:55.261Z,42.64
2024-01-29T09:51:55.265Z,42.56
2024-01-29T09:52:58.852Z,42.55
2024-01-29T09:53:55.241Z,42.50
2024-01-29T09:54:55.257Z,42.50
2024-01-29T09:55:55.206Z,42.40
2024-01-29T09:56:55.219Z,42.36
2024-01-29T09:57:55.305Z,42.37
2024-01-29T09:58:55.267Z,42.27
2024-01-29T09:59:55.948Z,42.29
2024-01-29T10:00:55.277Z,42.17
2024-01-29T10:01:55.238Z,42.10
2024-01-29T10:02:55.368Z,42.03
2024-01-29T10:03:55.264Z,42.05
2024-01-29T10:04:55.218Z,41.99
2024-01-29T10:05:55.161Z,41.98
2024-01-29T10:06:55.237Z,41.88
2024-01-29T10:07:55.318Z,41.87
2024-01-29T10:08:55.133Z,41.81
2024-01-29T10:09:55.215Z,41.81
2024-01-29T10:10:55.126Z,41.72
2024-01-29T10:11:55.145Z,41.62
2024-01-29T10:12:55.144Z,41.64
2024-01-29T10:13:55.954Z,41.52
2024-01-29T10:14:55.119Z,41.52
2024-01-29T10:15:55.212Z,41.43
2024-01-29T10:16:55.089Z,41.41
2024-01-29T10:17:55.129Z,41.32
2024-01-29T10:18:55.178Z,35.72
2024-01-29T10:19:55.260Z,40.01
2024-01-29T10:20:55.172Z,38.16
2024-01-29T10:21:55.230Z,37.02
2024-01-29T10:22:55.195Z,36.17
2024-01-29T10:23:55.221Z,35.88
2024-01-29T10:24:55.273Z,36.99
2024-01-29T10:25:55.973Z,37.33
2024-01-29T10:26:55.292Z,37.29
2024-01-29T10:27:55.326Z,37.85
2024-01-29T10:28:55.345Z,38.25
2024-01-29T10:29:55.353Z,38.35
2024-01-29T10:30:55.630Z,38.48
2024-01-29T10:31:55.495Z,38.72
2024-01-29T10:32:55.683Z,38.59
2024-01-29T10:33:55.749Z,38.96
2024-01-29T10:34:55.840Z,39.97
2024-01-29T10:35:55.820Z,40.68
2024-01-29T10:36:55.816Z,41.17
2024-01-29T10:37:55.835Z,41.73
2024-01-29T10:38:55.868Z,41.43
2024-01-29T10:39:59.666Z,42.37
2024-01-29T10:40:55.907Z,41.38
2024-01-29T10:41:56.542Z,42.54
2024-01-29T10:42:55.913Z,43.03
2024-01-29T10:43:55.875Z,43.10
2024-01-29T10:44:55.891Z,43.43
2024-01-29T10:45:57.540Z,43.70
2024-01-29T10:46:55.850Z,44.18
2024-01-29T10:47:57.650Z,43.94
2024-01-29T10:48:56.110Z,44.90
2024-01-29T10:49:57.011Z,44.90
2024-01-29T10:50:56.077Z,44.94
2024-01-29T10:51:56.526Z,45.65
2024-01-29T10:52:56.136Z,45.60
2024-01-29T10:53:56.142Z,45.33
2024-01-29T10:54:56.220Z,46.00
2024-01-29T10:55:56.216Z,45.84
2024-01-29T10:56:56.279Z,45.94
2024-01-29T10:57:56.285Z,46.64
2024-01-29T10:58:56.306Z,46.42
2024-01-29T10:59:56.398Z,46.76
2024-01-29T11:00:56.452Z,46.88
2024-01-29T11:02:03.852Z,46.90
2024-01-29T11:02:57.453Z,47.17
2024-01-29T11:03:56.434Z,47.38
2024-01-29T11:04:56.419Z,47.43
2024-01-29T11:05:56.402Z,47.65
2024-01-29T11:06:57.380Z,47.67
2024-01-29T11:07:56.284Z,48.14
2024-01-29T11:08:56.284Z,48.21
2024-01-29T11:09:56.317Z,48.41
2024-01-29T11:10:56.312Z,47.26
2024-01-29T11:11:56.234Z,41.22
2024-01-29T11:12:56.321Z,44.11
2024-01-29T11:13:56.242Z,42.38
2024-01-29T11:14:56.226Z,41.55
2024-01-29T11:15:56.282Z,41.89
2024-01-29T11:16:56.206Z,41.36
2024-01-29T11:17:56.220Z,41.16
2024-01-29T11:18:56.264Z,40.85
2024-01-29T11:19:56.243Z,40.74
2024-01-29T11:20:56.986Z,41.17
2024-01-29T11:21:56.267Z,41.51
2024-01-29T11:22:56.302Z,42.04
2024-01-29T11:23:56.323Z,42.23
2024-01-29T11:24:56.309Z,42.18
2024-01-29T11:25:56.301Z,42.75
2024-01-29T11:26:56.987Z,42.65
2024-01-29T11:27:56.276Z,42.80
2024-01-29T11:28:56.355Z,43.08
2024-01-29T11:29:56.430Z,43.02
2024-01-29T11:30:56.584Z,43.32
2024-01-29T11:31:57.000Z,43.61
2024-01-29T11:32:56.623Z,43.40
2024-01-29T11:33:56.958Z,43.73
2024-01-29T11:34:56.531Z,43.66
2024-01-29T11:35:56.614Z,43.84
2024-01-29T11:36:57.659Z,43.72
2024-01-29T11:37:56.621Z,43.71
2024-01-29T11:38:56.728Z,44.30
2024-01-29T11:39:56.721Z,43.93
2024-01-29T11:40:56.741Z,44.04
2024-01-29T11:41:56.751Z,44.13
2024-01-29T11:42:56.867Z,44.15
2024-01-29T11:43:56.812Z,44.39
2024-01-29T11:44:56.914Z,44.50
2024-01-29T11:45:57.477Z,44.72
2024-01-29T11:46:56.912Z,44.64
2024-01-29T11:47:57.539Z,44.69
2024-01-29T11:48:57.105Z,44.90
2024-01-29T11:49:57.535Z,44.91
2024-01-29T11:50:56.968Z,45.08
2024-01-29T11:51:58.011Z,45.15
2024-01-29T11:53:04.662Z,45.11
2024-01-29T11:53:57.921Z,45.47
2024-01-29T11:54:56.948Z,45.45
2024-01-29T11:55:57.871Z,46.75
2024-01-29T11:56:57.501Z,46.89
2024-01-29T11:57:56.856Z,46.18
2024-01-29T11:58:56.810Z,45.65
2024-01-29T11:59:56.791Z,44.60
2024-01-29T12:00:57.081Z,44.74
2024-01-29T12:01:56.785Z,43.98
2024-01-29T12:02:56.719Z,43.77
2024-01-29T12:03:56.727Z,43.82
2024-01-29T12:04:56.735Z,43.71
2024-01-29T12:05:56.681Z,43.52
2024-01-29T12:06:56.799Z,43.54
2024-01-29T12:07:56.795Z,43.46
2024-01-29T12:08:56.580Z,43.39
2024-01-29T12:09:56.571Z,43.29
2024-01-29T12:10:56.546Z,43.26
2024-01-29T12:11:56.550Z,43.27
2024-01-29T12:12:56.686Z,43.25
2024-01-29T12:13:56.542Z,43.27
2024-01-29T12:14:56.543Z,43.21
2024-01-29T12:15:56.559Z,43.22
2024-01-29T12:16:56.595Z,43.17
2024-01-29T12:17:57.028Z,43.15
2024-01-29T12:18:56.587Z,43.07
2024-01-29T12:19:56.420Z,43.06
2024-01-29T12:20:56.425Z,43.06
2024-01-29T12:21:56.438Z,42.99
2024-01-29T12:22:56.368Z,42.87
2024-01-29T12:23:56.366Z,42.90
2024-01-29T12:24:56.432Z,42.85
2024-01-29T12:25:56.344Z,42.84
2024-01-29T12:26:56.285Z,42.78
2024-01-29T12:27:56.296Z,42.75
2024-01-29T12:28:56.233Z,42.75
2024-01-29T12:29:56.235Z,42.66
2024-01-29T12:30:56.207Z,42.67
2024-01-29T12:31:56.169Z,42.59
2024-01-29T12:32:56.237Z,42.55
2024-01-29T12:33:56.363Z,42.50
2024-01-29T12:34:56.284Z,42.44
2024-01-29T12:35:56.093Z,42.44
2024-01-29T12:36:56.150Z,42.45
2024-01-29T12:37:56.157Z,42.41
2024-01-29T12:38:56.642Z,42.36
2024-01-29T12:39:56.127Z,42.32
2024-01-29T12:40:56.119Z,42.34
2024-01-29T12:41:56.052Z,42.29
2024-01-29T12:42:56.089Z,42.23
2024-01-29T12:43:56.019Z,42.30
2024-01-29T12:44:55.975Z,42.23
2024-01-29T12:45:56.011Z,42.21
2024-01-29T12:46:55.938Z,42.20
2024-01-29T12:47:55.953Z,42.17
2024-01-29T12:48:56.056Z,42.13
2024-01-29T12:49:56.094Z,42.12
2024-01-29T12:50:55.979Z,42.10
2024-01-29T12:51:55.910Z,42.10
2024-01-29T12:52:55.834Z,42.08